createdAt,value
2022-11-15T00:02:39.932Z,9.09
2022-11-15T00:05:26.360Z,8.98
2022-11-15T00:08:14.317Z,9.10
2022-11-15T00:11:03.619Z,9.08
2022-11-15T00:13:50.323Z,9.08
2022-11-15T00:16:36.582Z,9.13
2022-11-15T00:19:23.131Z,9.09
2022-11-15T00:22:09.781Z,9.13
2022-11-15T00:24:57.537Z,9.14
2022-11-15T00:27:44.065Z,9.25
2022-11-15T00:30:30.844Z,9.27
2022-11-15T00:33:17.252Z,9.21
2022-11-15T00:36:05.578Z,8.92
2022-11-15T00:38:52.243Z,9.10
2022-11-15T00:41:40.002Z,9.25
2022-11-15T00:44:26.554Z,9.19
2022-11-15T00:47:13.216Z,9.25
2022-11-15T00:50:00.038Z,9.09
2022-11-15T00:52:46.934Z,9.04
2022-11-15T00:55:33.550Z,8.90
2022-11-15T00:58:21.715Z,9.01
2022-11-15T01:01:09.827Z,9.01
2022-11-15T01:04:01.298Z,8.99
2022-11-15T01:06:48.423Z,8.96
2022-11-15T01:09:34.948Z,8.79
2022-11-15T01:12:21.527Z,8.73
2022-11-15T01:15:10.444Z,8.73
2022-11-15T01:17:57.004Z,8.75
2022-11-15T01:20:43.938Z,8.73
2022-11-15T01:23:30.485Z,8.88
2022-11-15T01:26:17.815Z,8.94
2022-11-15T01:29:04.717Z,8.91
2022-11-15T01:31:52.630Z,8.97
2022-11-15T01:34:39.207Z,8.96
2022-11-15T01:37:25.799Z,9.06
2022-11-15T01:40:12.920Z,8.87
2022-11-15T01:42:59.716Z,8.95
2022-11-15T01:45:48.487Z,8.91
2022-11-15T01:48:37.511Z,8.72
2022-11-15T01:51:28.165Z,8.76
2022-11-15T01:54:18.459Z,8.67
2022-11-15T01:57:09.233Z,8.82
2022-11-15T01:59:56.546Z,8.80
2022-11-15T02:02:43.785Z,8.74
2022-11-15T02:05:32.647Z,8.85
2022-11-15T02:08:21.820Z,8.67
2022-11-15T02:11:10.453Z,8.76
2022-11-15T02:13:57.830Z,8.90
2022-11-15T02:16:54.997Z,8.93
2022-11-15T02:20:03.063Z,8.97
2022-11-15T02:23:08.517Z,8.65
2022-11-15T02:26:08.632Z,8.89
2022-11-15T02:29:03.871Z,8.93
2022-11-15T02:31:58.064Z,8.97
2022-11-15T02:34:53.388Z,8.92
2022-11-15T02:37:47.546Z,8.80
2022-11-15T02:40:43.867Z,8.71
2022-11-15T02:43:57.319Z,8.83
2022-11-15T02:47:17.305Z,8.83
2022-11-15T02:50:10.602Z,8.87
2022-11-15T02:52:57.800Z,8.72
2022-11-15T02:55:49.432Z,8.49
2022-11-15T02:59:02.731Z,8.60
2022-11-15T03:02:02.015Z,8.62
2022-11-15T03:04:55.732Z,8.36
2022-11-15T03:07:55.845Z,8.49
2022-11-15T03:10:56.115Z,8.51
2022-11-15T03:13:49.013Z,8.67
2022-11-15T03:16:39.871Z,8.73
2022-11-15T03:19:33.224Z,8.48
2022-11-15T03:22:23.422Z,8.22
2022-11-15T03:25:15.445Z,8.33
2022-11-15T03:28:05.719Z,8.28
2022-11-15T03:30:54.385Z,8.31
2022-11-15T03:33:42.173Z,8.29
2022-11-15T03:36:29.459Z,8.46
2022-11-15T03:39:20.387Z,8.49
2022-11-15T03:42:17.798Z,8.54
2022-11-15T03:45:13.041Z,8.42
2022-11-15T03:48:04.584Z,8.52
2022-11-15T03:50:51.665Z,8.51
2022-11-15T03:53:38.237Z,8.45
2022-11-15T03:56:24.640Z,8.33
2022-11-15T03:59:12.457Z,8.17
2022-11-15T04:01:59.043Z,8.37
2022-11-15T04:04:45.572Z,8.38
2022-11-15T04:07:32.192Z,8.45
2022-11-15T04:10:19.362Z,8.15
2022-11-15T04:13:05.846Z,8.28
2022-11-15T04:15:53.697Z,8.33
2022-11-15T04:18:40.118Z,8.36
2022-11-15T04:21:44.036Z,8.28
2022-11-15T04:24:30.157Z,8.18
2022-11-15T04:27:16.916Z,8.30
2022-11-15T04:30:03.409Z,8.14
2022-11-15T04:32:51.187Z,8.38
2022-11-15T04:35:37.844Z,8.50
2022-11-15T04:38:23.377Z,8.32
2022-11-15T04:41:09.770Z,8.30
2022-11-15T04:43:56.375Z,8.26
2022-11-15T04:46:42.905Z,8.28
2022-11-15T04:49:30.695Z,8.35
2022-11-15T04:52:17.240Z,8.44
2022-11-15T04:55:08.142Z,8.15
2022-11-15T04:58:01.938Z,8.22
2022-11-15T05:00:48.416Z,8.20
2022-11-15T05:03:57.756Z,8.24
2022-11-15T05:06:45.606Z,8.33
2022-11-15T05:09:32.174Z,8.23
2022-11-15T05:12:18.738Z,8.24
2022-11-15T05:15:06.026Z,8.25
2022-11-15T05:17:52.482Z,8.21
2022-11-15T05:20:39.232Z,8.22
2022-11-15T05:23:27.242Z,8.12
2022-11-15T05:26:18.565Z,7.99
2022-11-15T05:29:05.023Z,8.04
2022-11-15T05:31:51.901Z,8.01
2022-11-15T05:34:38.871Z,8.16
2022-11-15T05:37:25.001Z,8.14
2022-11-15T05:40:12.970Z,7.93
2022-11-15T05:43:02.052Z,7.85
2022-11-15T05:45:48.785Z,7.84
2022-11-15T05:48:37.131Z,7.81
2022-11-15T05:51:24.881Z,7.89
2022-11-15T05:54:12.701Z,7.78
2022-11-15T05:57:00.998Z,7.69
2022-11-15T05:59:47.694Z,7.77
2022-11-15T06:02:34.423Z,7.83
2022-11-15T06:05:20.792Z,7.90
2022-11-15T06:08:07.075Z,7.79
2022-11-15T06:10:53.905Z,7.83
2022-11-15T06:13:41.754Z,7.84
2022-11-15T06:16:28.324Z,7.80
2022-11-15T06:19:14.789Z,7.80
2022-11-15T06:22:01.410Z,7.90
2022-11-15T06:24:47.837Z,7.89
2022-11-15T06:27:34.450Z,7.88
2022-11-15T06:30:23.011Z,8.02
2022-11-15T06:33:10.629Z,7.84
2022-11-15T06:35:56.796Z,7.95
2022-11-15T06:38:43.491Z,7.78
2022-11-15T06:41:30.102Z,7.64
2022-11-15T06:44:17.467Z,7.84
2022-11-15T06:47:05.486Z,7.82
2022-11-15T06:49:52.282Z,7.77
2022-11-15T06:52:38.667Z,7.90
2022-11-15T06:55:25.342Z,7.98
2022-11-15T06:58:11.762Z,8.03
2022-11-15T07:01:01.391Z,8.15
2022-11-15T07:03:49.386Z,7.86
2022-11-15T07:06:36.040Z,7.76
2022-11-15T07:09:22.687Z,7.96
2022-11-15T07:12:09.223Z,7.62
2022-11-15T07:14:55.716Z,7.76
2022-11-15T07:17:42.152Z,7.92
2022-11-15T07:20:30.094Z,7.89
2022-11-15T07:23:16.532Z,7.93
2022-11-15T07:26:02.880Z,8.15
2022-11-15T07:28:49.684Z,8.01
2022-11-15T07:31:36.548Z,7.93
2022-11-15T07:34:23.207Z,7.90
2022-11-15T07:37:11.180Z,7.86
2022-11-15T07:39:57.850Z,8.08
2022-11-15T07:42:56.992Z,7.93
2022-11-15T07:45:44.982Z,8.11
2022-11-15T07:48:42.660Z,8.11
2022-11-15T07:51:30.859Z,8.20
2022-11-15T07:54:18.697Z,8.31
2022-11-15T07:57:07.517Z,8.24
2022-11-15T07:59:54.263Z,8.25
2022-11-15T08:02:41.591Z,8.23
2022-11-15T08:05:28.425Z,8.47
2022-11-15T08:08:14.924Z,8.40
2022-11-15T08:11:02.976Z,8.33
2022-11-15T08:13:49.774Z,8.54
2022-11-15T08:16:36.365Z,8.50
2022-11-15T08:19:23.110Z,8.51
2022-11-15T08:22:09.507Z,8.48
2022-11-15T08:24:56.300Z,8.25
2022-11-15T08:27:44.216Z,8.27
2022-11-15T08:30:31.166Z,8.73
2022-11-15T08:33:17.739Z,8.86
2022-11-15T08:36:04.311Z,8.93
2022-11-15T08:38:50.811Z,9.12
2022-11-15T08:41:39.395Z,9.16
2022-11-15T08:44:27.321Z,8.99
2022-11-15T08:47:14.767Z,9.08
2022-11-15T08:50:01.643Z,9.18
2022-11-15T08:52:49.291Z,9.36
2022-11-15T08:55:39.065Z,9.29
2022-11-15T08:58:25.799Z,9.28
2022-11-15T09:01:19.617Z,9.51
2022-11-15T09:04:06.456Z,9.45
2022-11-15T09:06:53.010Z,8.30
2022-11-15T09:09:40.110Z,8.40
2022-11-15T09:12:26.811Z,8.85
2022-11-15T09:15:13.412Z,8.62
2022-11-15T09:18:01.800Z,8.79
2022-11-15T09:20:48.793Z,8.44
2022-11-15T09:23:35.552Z,8.63
2022-11-15T09:26:21.964Z,9.20
2022-11-15T09:29:08.567Z,9.11
2022-11-15T09:31:55.023Z,9.44
2022-11-15T09:34:42.782Z,9.76
2022-11-15T09:37:29.285Z,9.66
2022-11-15T09:40:20.396Z,9.50
2022-11-15T09:43:31.025Z,9.84
2022-11-15T09:46:24.348Z,9.92
2022-11-15T09:49:16.921Z,10.15
2022-11-15T09:51:53.553Z,10.14
2022-11-15T09:57:22.527Z,10.34
2022-11-15T10:00:38.692Z,10.31
2022-11-15T10:03:10.601Z,10.18
2022-11-15T10:05:41.714Z,10.37
2022-11-15T10:08:23.775Z,10.20
2022-11-15T10:11:15.918Z,9.95
2022-11-15T10:13:45.107Z,10.08
2022-11-15T10:16:34.392Z,10.35
2022-11-15T10:19:12.126Z,10.49
2022-11-15T10:21:52.836Z,10.54
2022-11-15T10:24:29.163Z,10.70
2022-11-15T10:26:58.097Z,10.57
2022-11-15T10:29:27.512Z,10.47
2022-11-15T10:31:55.753Z,10.59
2022-11-15T10:34:26.019Z,10.25
2022-11-15T10:36:58.389Z,10.62
2022-11-15T10:39:28.425Z,10.76
2022-11-15T10:41:58.012Z,10.92
2022-11-15T10:44:28.572Z,10.92
2022-11-15T10:47:25.370Z,11.17
2022-11-15T10:50:29.381Z,11.26
2022-11-15T10:52:57.481Z,11.31
2022-11-15T10:55:30.050Z,11.26
2022-11-15T10:58:04.269Z,11.37
2022-11-15T11:00:36.622Z,11.48
2022-11-15T11:03:08.207Z,11.37
2022-11-15T11:05:42.285Z,11.50
2022-11-15T11:08:25.438Z,11.92
2022-11-15T11:11:02.497Z,11.84
2022-11-15T11:13:32.829Z,12.06
2022-11-15T11:16:22.056Z,12.36
2022-11-15T11:18:59.218Z,12.37
2022-11-15T11:21:39.781Z,12.64
2022-11-15T11:24:16.299Z,12.40
2022-11-15T11:26:56.810Z,12.56
2022-11-15T11:29:36.923Z,12.44
2022-11-15T11:32:19.862Z,12.71
2022-11-15T11:34:56.710Z,12.85
2022-11-15T11:37:32.935Z,12.66
2022-11-15T11:40:15.362Z,12.86
2022-11-15T11:43:00.213Z,13.16
2022-11-15T11:45:47.724Z,13.55
2022-11-15T11:48:23.019Z,14.75
2022-11-15T11:50:51.658Z,15.39
2022-11-15T11:53:28.896Z,15.92
2022-11-15T11:56:01.040Z,16.14
2022-11-15T11:58:37.013Z,16.63
2022-11-15T12:01:13.690Z,16.96
2022-11-15T12:03:45.907Z,17.28
2022-11-15T12:06:26.051Z,18.17
2022-11-15T12:08:58.596Z,18.58
2022-11-15T12:11:34.960Z,19.19
2022-11-15T12:14:12.545Z,19.18
2022-11-15T12:16:45.115Z,19.65
2022-11-15T12:19:13.058Z,19.52
2022-11-15T12:21:47.970Z,19.22
2022-11-15T12:24:22.261Z,19.37
2022-11-15T12:26:54.801Z,19.58
2022-11-15T12:29:30.138Z,19.42
2022-11-15T12:32:00.989Z,19.15
2022-11-15T12:34:42.394Z,18.92
2022-11-15T12:37:35.175Z,18.92
2022-11-15T12:40:20.307Z,17.70
2022-11-15T12:43:20.604Z,17.47
2022-11-15T12:45:49.956Z,17.23
2022-11-15T12:48:57.456Z,17.00
2022-11-15T12:52:07.533Z,16.24
2022-11-15T12:54:56.740Z,16.21
2022-11-15T12:57:45.535Z,15.99
2022-11-15T13:00:49.298Z,15.79
2022-11-15T13:03:36.602Z,15.56
2022-11-15T13:06:11.299Z,15.39
2022-11-15T13:08:50.735Z,15.51
2022-11-15T13:11:51.501Z,15.25
2022-11-15T13:14:42.622Z,14.91
2022-11-15T13:17:30.782Z,14.95
2022-11-15T13:20:23.468Z,14.92
2022-11-15T13:22:55.654Z,14.78
2022-11-15T13:25:48.987Z,14.65
2022-11-15T13:28:24.101Z,14.55
2022-11-15T13:30:54.530Z,14.44
2022-11-15T13:33:25.448Z,14.49
2022-11-15T13:35:58.438Z,14.46
2022-11-15T13:38:32.656Z,14.41
2022-11-15T13:41:02.004Z,14.15
2022-11-15T13:43:37.753Z,14.29
2022-11-15T13:46:12.514Z,14.10
2022-11-15T13:48:41.300Z,14.19
2022-11-15T13:51:16.823Z,14.07
2022-11-15T13:53:49.186Z,14.06
2022-11-15T13:56:18.943Z,14.06
2022-11-15T13:58:49.050Z,14.11
2022-11-15T14:01:20.848Z,14.04
2022-11-15T14:03:52.994Z,14.13
2022-11-15T14:06:25.403Z,14.14
2022-11-15T14:09:26.592Z,14.21
2022-11-15T14:11:56.234Z,14.16
2022-11-15T14:14:25.767Z,14.16
2022-11-15T14:16:56.176Z,14.10
2022-11-15T14:19:41.914Z,14.15
2022-11-15T14:22:16.564Z,14.11
2022-11-15T14:24:46.664Z,14.09
2022-11-15T14:27:26.019Z,14.11
2022-11-15T14:29:54.170Z,14.11
2022-11-15T14:32:24.128Z,14.09
2022-11-15T14:34:56.798Z,14.17
2022-11-15T14:37:27.864Z,14.06
2022-11-15T14:39:56.433Z,14.03
2022-11-15T14:42:25.465Z,14.01
2022-11-15T14:44:54.217Z,13.97
2022-11-15T14:47:22.405Z,13.87
2022-11-15T14:49:50.678Z,13.83
2022-11-15T14:52:32.132Z,13.66
2022-11-15T14:55:02.390Z,13.73
2022-11-15T14:57:30.960Z,13.81
2022-11-15T14:59:58.999Z,13.83
2022-11-15T15:02:40.951Z,13.61
2022-11-15T15:05:16.349Z,13.51
2022-11-15T15:07:46.030Z,13.29
2022-11-15T15:10:38.996Z,13.12
2022-11-15T15:13:03.223Z,12.90
2022-11-15T15:15:36.923Z,12.59
2022-11-15T15:18:05.669Z,12.50
2022-11-15T15:20:34.054Z,12.60
2022-11-15T15:23:03.357Z,12.86
2022-11-15T15:25:34.039Z,13.14
2022-11-15T15:28:02.089Z,13.20
2022-11-15T15:30:31.474Z,13.45
2022-11-15T15:32:59.692Z,13.26
2022-11-15T15:35:32.163Z,13.27
2022-11-15T15:38:00.317Z,13.42
2022-11-15T15:40:31.975Z,13.47
2022-11-15T15:43:00.115Z,13.49
2022-11-15T15:45:29.261Z,13.44
2022-11-15T15:47:57.619Z,13.51
2022-11-15T15:50:27.777Z,13.58
2022-11-15T15:52:57.606Z,13.56
2022-11-15T15:55:26.037Z,13.52
2022-11-15T15:57:55.834Z,13.37
2022-11-15T16:00:25.868Z,13.11
2022-11-15T16:02:54.613Z,12.96
2022-11-15T16:05:23.684Z,13.06
2022-11-15T16:07:51.838Z,13.24
2022-11-15T16:10:25.952Z,13.32
2022-11-15T16:12:56.714Z,13.21
2022-11-15T16:15:26.775Z,13.18
2022-11-15T16:17:56.132Z,13.24
2022-11-15T16:20:33.475Z,13.35
2022-11-15T16:23:07.587Z,13.42
2022-11-15T16:25:43.829Z,13.48
2022-11-15T16:28:19.609Z,13.51
2022-11-15T16:30:50.043Z,13.50
2022-11-15T16:33:21.764Z,13.46
2022-11-15T16:35:50.031Z,13.51
2022-11-15T16:38:18.295Z,13.34
2022-11-15T16:40:46.342Z,13.51
2022-11-15T16:43:14.270Z,13.42
2022-11-15T16:45:43.642Z,13.45
2022-11-15T16:48:22.746Z,13.36
2022-11-15T16:50:50.691Z,13.40
2022-11-15T16:53:18.952Z,13.39
2022-11-15T16:55:46.943Z,13.37
2022-11-15T16:58:14.883Z,13.26
2022-11-15T17:00:44.320Z,13.29
2022-11-15T17:03:12.352Z,13.38
2022-11-15T17:05:40.253Z,13.27
2022-11-15T17:08:08.268Z,13.23
2022-11-15T17:10:36.207Z,12.94
2022-11-15T17:13:04.200Z,12.84
2022-11-15T17:15:32.073Z,12.39
2022-11-15T17:18:01.343Z,12.09
2022-11-15T17:20:29.302Z,11.63
2022-11-15T17:22:57.401Z,12.44
2022-11-15T17:25:25.400Z,12.70
2022-11-15T17:27:53.443Z,12.97
2022-11-15T17:30:21.464Z,13.10
2022-11-15T17:32:49.863Z,13.06
2022-11-15T17:35:19.329Z,13.08
2022-11-15T17:37:48.370Z,13.22
2022-11-15T17:40:16.941Z,13.23
2022-11-15T17:42:44.843Z,13.22
2022-11-15T17:45:13.147Z,12.98
2022-11-15T17:47:41.048Z,13.27
2022-11-15T17:50:10.711Z,13.34
2022-11-15T17:52:39.933Z,13.37
2022-11-15T17:55:08.449Z,13.43
2022-11-15T17:57:36.390Z,13.44
2022-11-15T18:00:06.322Z,13.41
2022-11-15T18:02:34.354Z,13.24
2022-11-15T18:05:03.336Z,12.93
2022-11-15T18:07:31.354Z,12.97
2022-11-15T18:10:00.658Z,13.29
2022-11-15T18:12:28.631Z,13.18
2022-11-15T18:14:56.570Z,13.10
2022-11-15T18:17:24.567Z,13.27
2022-11-15T18:19:52.473Z,13.07
2022-11-15T18:22:20.614Z,13.01
2022-11-15T18:24:48.558Z,12.91
2022-11-15T18:27:17.821Z,12.92
2022-11-15T18:29:45.715Z,12.98
2022-11-15T18:32:15.358Z,13.04
2022-11-15T18:34:43.290Z,13.21
2022-11-15T18:37:11.372Z,13.19
2022-11-15T18:39:39.289Z,13.23
2022-11-15T18:42:07.277Z,12.94
2022-11-15T18:44:36.668Z,13.23
2022-11-15T18:47:04.743Z,13.38
2022-11-15T18:49:32.680Z,13.48
2022-11-15T18:52:00.579Z,13.49
2022-11-15T18:54:31.448Z,13.43
2022-11-15T18:57:00.149Z,13.17
2022-11-15T18:59:29.008Z,13.30
2022-11-15T19:01:58.354Z,13.26
2022-11-15T19:04:26.369Z,13.36
2022-11-15T19:06:54.512Z,13.30
2022-11-15T19:09:22.443Z,13.31
2022-11-15T19:11:51.746Z,13.33
2022-11-15T19:14:24.235Z,13.29
2022-11-15T19:16:53.182Z,13.33
2022-11-15T19:19:24.515Z,13.39
2022-11-15T19:21:52.958Z,13.42
2022-11-15T19:24:21.108Z,13.38
2022-11-15T19:26:56.039Z,13.44
2022-11-15T19:29:24.916Z,13.45
2022-11-15T19:31:52.926Z,13.18
2022-11-15T19:34:22.183Z,13.22
2022-11-15T19:36:50.099Z,13.16
2022-11-15T19:39:18.707Z,13.22
2022-11-15T19:41:47.166Z,13.32
2022-11-15T19:44:15.414Z,13.27
2022-11-15T19:46:44.357Z,13.12
2022-11-15T19:49:12.462Z,13.24
2022-11-15T19:51:45.163Z,13.15
2022-11-15T19:54:13.729Z,13.14
2022-11-15T19:56:41.795Z,13.17
2022-11-15T19:59:11.707Z,13.24
2022-11-15T20:01:40.022Z,13.29
2022-11-15T20:04:10.200Z,13.21
2022-11-15T20:06:41.637Z,13.17
2022-11-15T20:09:13.414Z,13.14
2022-11-15T20:11:41.401Z,13.17
2022-11-15T20:14:11.670Z,13.08
2022-11-15T20:16:40.175Z,12.73
2022-11-15T20:19:08.897Z,12.93
2022-11-15T20:21:37.205Z,12.99
2022-11-15T20:24:05.914Z,12.97
2022-11-15T20:26:35.714Z,13.03
2022-11-15T20:29:04.049Z,13.22
2022-11-15T20:31:32.758Z,13.20
2022-11-15T20:34:01.167Z,13.19
2022-11-15T20:36:29.783Z,13.08
2022-11-15T20:38:59.363Z,12.98
2022-11-15T20:41:28.230Z,13.08
2022-11-15T20:43:57.644Z,12.79
2022-11-15T20:46:25.630Z,12.81
2022-11-15T20:48:53.494Z,12.78
2022-11-15T20:51:21.821Z,12.17
2022-11-15T20:53:49.871Z,12.00
2022-11-15T20:56:20.238Z,11.73
2022-11-15T20:58:50.451Z,11.63
2022-11-15T21:01:23.774Z,11.75
2022-11-15T21:03:52.898Z,11.87
2022-11-15T21:06:21.282Z,11.85
2022-11-15T21:09:07.506Z,12.04
2022-11-15T21:11:53.342Z,12.44
2022-11-15T21:14:21.576Z,12.68
2022-11-15T21:16:50.874Z,12.81
2022-11-15T21:19:22.654Z,12.81
2022-11-15T21:21:53.723Z,12.82
2022-11-15T21:24:22.286Z,12.84
2022-11-15T21:26:50.256Z,12.41
2022-11-15T21:29:18.197Z,12.18
2022-11-15T21:31:46.720Z,12.51
2022-11-15T21:34:16.416Z,12.39
2022-11-15T21:36:45.003Z,12.12
2022-11-15T21:39:12.907Z,11.84
2022-11-15T21:41:40.879Z,11.46
2022-11-15T21:44:08.838Z,11.17
2022-11-15T21:46:37.354Z,10.78
2022-11-15T21:49:06.998Z,11.17
2022-11-15T21:51:36.463Z,11.53
2022-11-15T21:54:04.694Z,11.69
2022-11-15T21:56:32.782Z,11.90
2022-11-15T21:59:01.268Z,11.98
2022-11-15T22:01:47.298Z,12.33
2022-11-15T22:04:15.786Z,12.57
2022-11-15T22:06:45.061Z,12.62
2022-11-15T22:09:13.184Z,12.79
2022-11-15T22:11:41.265Z,12.81
2022-11-15T22:14:09.489Z,12.90
2022-11-15T22:16:37.797Z,12.88
2022-11-15T22:19:05.993Z,12.89
2022-11-15T22:21:34.047Z,12.97
2022-11-15T22:24:03.603Z,12.90
2022-11-15T22:26:31.565Z,12.37
2022-11-15T22:28:59.640Z,11.82
2022-11-15T22:31:27.662Z,11.86
2022-11-15T22:33:55.700Z,12.56
2022-11-15T22:36:26.218Z,12.54
2022-11-15T22:38:58.398Z,11.90
2022-11-15T22:41:27.680Z,11.73
2022-11-15T22:43:55.664Z,12.05
2022-11-15T22:46:23.633Z,12.34
2022-11-15T22:48:51.597Z,12.18
2022-11-15T22:51:19.531Z,11.56
2022-11-15T22:53:47.615Z,11.77
2022-11-15T22:56:20.157Z,11.76
2022-11-15T22:58:49.690Z,11.43
2022-11-15T23:01:22.249Z,11.28
2022-11-15T23:03:50.325Z,11.39
2022-11-15T23:06:18.404Z,11.26
2022-11-15T23:08:46.368Z,11.23
2022-11-15T23:11:31.824Z,11.17
2022-11-15T23:14:01.199Z,11.25
2022-11-15T23:16:35.372Z,11.39
2022-11-15T23:19:06.015Z,11.53
2022-11-15T23:21:52.766Z,11.62
2022-11-15T23:24:21.489Z,11.34
2022-11-15T23:26:52.024Z,11.35
2022-11-15T23:32:09.845Z,11.13
2022-11-15T23:34:39.798Z,11.17
2022-11-15T23:37:09.165Z,11.47
2022-11-15T23:39:37.211Z,11.14
2022-11-15T23:42:09.106Z,11.03
2022-11-15T23:44:38.934Z,11.19
2022-11-15T23:47:06.944Z,10.96
2022-11-15T23:49:34.900Z,11.00
2022-11-15T23:52:02.836Z,10.95
2022-11-15T23:54:31.065Z,11.04
2022-11-15T23:56:59.023Z,11.09
2022-11-15T23:59:26.970Z,11.11
